createdAt,value
2022-08-14T00:02:13.526Z,40.25
2022-08-14T00:04:42.362Z,37.03
2022-08-14T00:07:14.042Z,38.45
2022-08-14T00:10:02.268Z,38.45
2022-08-14T00:12:33.958Z,37.47
2022-08-14T00:15:13.285Z,36.22
2022-08-14T00:17:47.275Z,35.85
2022-08-14T00:20:23.865Z,35.58
2022-08-14T00:22:57.715Z,35.78
2022-08-14T00:25:41.480Z,36.22
2022-08-14T00:28:14.996Z,33.40
2022-08-14T00:30:42.908Z,33.22
2022-08-14T00:33:16.554Z,30.48
2022-08-14T00:36:35.130Z,30.08
2022-08-14T00:38:32.189Z,28.88
2022-08-14T00:41:02.793Z,27.02
2022-08-14T00:43:32.276Z,27.83
2022-08-14T00:46:08.082Z,26.75
2022-08-14T00:48:38.567Z,25.50
2022-08-14T00:51:10.452Z,25.38
2022-08-14T00:53:38.754Z,25.23
2022-08-14T00:56:10.016Z,27.75
2022-08-14T00:58:45.038Z,28.83
2022-08-14T01:01:16.677Z,26.98
2022-08-14T01:03:44.789Z,26.50
2022-08-14T01:06:15.335Z,24.13
2022-08-14T01:08:57.719Z,23.70
2022-08-14T01:11:35.619Z,24.88
2022-08-14T01:14:04.789Z,24.20
2022-08-14T01:16:52.841Z,23.85
2022-08-14T01:19:38.802Z,33.80
2022-08-14T01:22:08.723Z,38.20
2022-08-14T01:24:41.472Z,40.08
2022-08-14T01:27:20.406Z,48.90
2022-08-14T01:30:00.578Z,54.30
2022-08-14T01:32:35.553Z,53.42
2022-08-14T01:35:19.192Z,45.63
2022-08-14T01:37:56.770Z,48.63
2022-08-14T01:40:36.735Z,48.30
2022-08-14T01:43:14.721Z,50.83
2022-08-14T01:45:42.625Z,52.95
2022-08-14T01:48:16.259Z,47.60
2022-08-14T01:50:47.735Z,48.63
2022-08-14T01:53:15.564Z,44.67
2022-08-14T01:55:42.732Z,42.88
2022-08-14T01:58:19.583Z,40.25
2022-08-14T02:00:54.978Z,36.47
2022-08-14T02:03:30.313Z,36.50
2022-08-14T02:06:03.918Z,37.55
2022-08-14T02:08:52.656Z,36.80
2022-08-14T02:11:25.255Z,35.40
2022-08-14T02:13:58.910Z,33.67
2022-08-14T02:16:29.697Z,35.65
2022-08-14T02:18:59.632Z,33.28
2022-08-14T02:21:28.551Z,29.65
2022-08-14T02:26:29.552Z,27.73
2022-08-14T02:29:00.910Z,28.35
2022-08-14T02:31:42.051Z,31.40
2022-08-14T02:34:20.142Z,29.45
2022-08-14T02:37:04.410Z,32.05
2022-08-14T02:39:39.054Z,29.05
2022-08-14T02:42:12.732Z,28.85
2022-08-14T02:44:42.164Z,51.03
2022-08-14T02:47:15.288Z,55.15
2022-08-14T02:49:50.549Z,60.85
2022-08-14T02:52:55.698Z,57.40
2022-08-14T02:55:09.406Z,47.47
2022-08-14T02:57:40.357Z,52.03
2022-08-14T03:00:10.007Z,46.63
2022-08-14T03:02:56.759Z,44.25
2022-08-14T03:07:52.898Z,34.53
2022-08-14T03:10:25.932Z,36.17
2022-08-14T03:12:55.669Z,34.67
2022-08-14T03:15:22.575Z,28.73
2022-08-14T03:17:57.350Z,33.67
2022-08-14T03:20:25.444Z,34.50
2022-08-14T03:22:52.817Z,32.25
2022-08-14T03:25:22.565Z,33.33
2022-08-14T03:27:58.578Z,32.30
2022-08-14T03:30:38.891Z,31.25
2022-08-14T03:35:39.934Z,30.92
2022-08-14T03:39:12.573Z,29.60
2022-08-14T03:41:17.683Z,29.17
2022-08-14T03:43:45.565Z,23.63
2022-08-14T03:46:52.984Z,29.85
2022-08-14T03:49:03.073Z,26.00
2022-08-14T03:51:30.254Z,24.73
2022-08-14T03:53:58.314Z,22.08
2022-08-14T03:56:26.714Z,22.70
2022-08-14T03:58:58.776Z,23.13
2022-08-14T04:01:29.477Z,20.08
2022-08-14T04:04:07.899Z,24.23
2022-08-14T04:06:44.546Z,24.23
2022-08-14T04:09:14.729Z,22.85
2022-08-14T04:11:45.361Z,22.40
2022-08-14T04:14:15.314Z,21.25
2022-08-14T04:16:47.702Z,21.90
2022-08-14T04:19:24.063Z,21.33
2022-08-14T04:22:03.654Z,22.75
2022-08-14T04:24:38.449Z,22.52
2022-08-14T04:29:40.930Z,24.23
2022-08-14T04:32:59.274Z,24.73
2022-08-14T04:34:57.185Z,23.65
2022-08-14T04:37:42.893Z,24.65
2022-08-14T04:40:28.960Z,23.77
2022-08-14T04:43:17.375Z,23.40
2022-08-14T04:45:45.040Z,22.77
2022-08-14T04:48:13.630Z,24.42
2022-08-14T04:51:00.781Z,23.95
2022-08-14T04:53:35.354Z,22.98
2022-08-14T04:56:06.122Z,22.08
2022-08-14T04:58:39.095Z,24.77
2022-08-14T05:01:12.957Z,26.73
2022-08-14T05:03:46.528Z,22.42
2022-08-14T05:06:38.530Z,21.55
2022-08-14T05:11:28.179Z,21.40
2022-08-14T05:14:34.437Z,20.23
2022-08-14T05:16:46.566Z,20.73
2022-08-14T05:19:18.095Z,21.67
2022-08-14T05:22:15.636Z,18.60
2022-08-14T05:24:42.382Z,22.45
2022-08-14T05:27:10.532Z,21.48
2022-08-14T05:29:37.402Z,22.00
2022-08-14T05:32:07.916Z,21.73
2022-08-14T05:34:34.941Z,23.02
2022-08-14T05:37:03.275Z,22.08
2022-08-14T05:39:31.721Z,22.88
2022-08-14T05:42:00.412Z,23.42
2022-08-14T05:44:30.860Z,29.35
2022-08-14T05:46:58.841Z,27.80
2022-08-14T05:49:32.811Z,23.75
2022-08-14T05:52:02.214Z,27.17
2022-08-14T05:54:35.676Z,27.45
2022-08-14T05:57:04.981Z,26.45
2022-08-14T05:59:38.825Z,26.48
2022-08-14T06:02:10.135Z,26.80
2022-08-14T06:04:38.437Z,27.92
2022-08-14T06:07:05.804Z,28.67
2022-08-14T06:09:35.517Z,25.63
2022-08-14T06:12:03.378Z,23.88
2022-08-14T06:14:31.353Z,22.92
2022-08-14T06:16:58.664Z,21.58
2022-08-14T06:19:26.562Z,23.33
2022-08-14T06:21:58.295Z,22.77
2022-08-14T06:24:26.400Z,22.95
2022-08-14T06:26:56.680Z,22.42
2022-08-14T06:29:32.431Z,24.35
2022-08-14T06:32:37.741Z,19.70
2022-08-14T06:35:04.355Z,21.52
2022-08-14T06:37:47.017Z,20.67
2022-08-14T06:40:16.653Z,21.33
2022-08-14T06:42:54.016Z,21.25
2022-08-14T06:45:21.552Z,20.58
2022-08-14T06:47:53.878Z,20.23
2022-08-14T06:50:28.029Z,21.30
2022-08-14T06:52:56.156Z,17.30
2022-08-14T06:55:27.990Z,21.10
2022-08-14T06:57:56.164Z,20.55
2022-08-14T07:00:31.216Z,19.52
2022-08-14T07:03:17.812Z,19.77
2022-08-14T07:05:58.109Z,19.98
2022-08-14T07:08:31.762Z,18.52
2022-08-14T07:11:04.115Z,21.48
2022-08-14T07:13:31.686Z,22.50
2022-08-14T07:16:00.558Z,19.70
2022-08-14T07:18:34.066Z,17.42
2022-08-14T07:23:30.243Z,16.88
2022-08-14T07:25:59.832Z,16.95
2022-08-14T07:28:29.672Z,21.58
2022-08-14T07:31:04.607Z,18.60
2022-08-14T07:33:45.639Z,17.63
2022-08-14T07:36:27.930Z,14.32
2022-08-14T07:38:58.940Z,17.33
2022-08-14T07:41:34.216Z,13.32
2022-08-14T07:44:32.482Z,12.88
2022-08-14T07:46:50.282Z,14.32
2022-08-14T07:49:18.303Z,14.90
2022-08-14T07:51:49.359Z,16.83
2022-08-14T07:54:23.151Z,13.07
2022-08-14T07:57:00.525Z,13.35
2022-08-14T07:59:41.194Z,13.57
2022-08-14T08:02:17.264Z,15.27
2022-08-14T08:04:54.051Z,12.35
2022-08-14T08:07:23.252Z,14.70
2022-08-14T08:09:54.584Z,14.85
2022-08-14T08:12:26.138Z,13.27
2022-08-14T08:15:02.823Z,14.23
2022-08-14T08:17:34.811Z,15.45
2022-08-14T08:20:06.752Z,14.43
2022-08-14T08:22:37.969Z,14.98
2022-08-14T08:25:08.504Z,15.27
2022-08-14T08:27:41.894Z,12.60
2022-08-14T08:30:12.547Z,14.60
2022-08-14T08:32:43.975Z,14.00
2022-08-14T08:35:23.797Z,14.60
2022-08-14T08:38:01.116Z,14.65
2022-08-14T08:40:42.150Z,14.95
2022-08-14T08:43:23.485Z,15.63
2022-08-14T08:46:18.684Z,13.43
2022-08-14T08:48:54.196Z,13.25
2022-08-14T08:51:43.097Z,15.88
2022-08-14T08:54:18.436Z,15.15
2022-08-14T08:56:48.790Z,14.43
2022-08-14T08:59:34.399Z,15.27
2022-08-14T09:02:10.598Z,14.95
2022-08-14T09:04:45.561Z,15.30
2022-08-14T09:07:20.355Z,16.33
2022-08-14T09:09:58.573Z,14.82
2022-08-14T09:12:31.501Z,16.55
2022-08-14T09:15:09.053Z,16.00
2022-08-14T09:17:41.526Z,13.10
2022-08-14T09:20:11.438Z,13.68
2022-08-14T09:22:47.928Z,14.90
2022-08-14T09:25:15.990Z,15.65
2022-08-14T09:27:42.864Z,17.02
2022-08-14T09:30:31.655Z,17.48
2022-08-14T09:33:11.645Z,15.77
2022-08-14T09:36:18.600Z,16.70
2022-08-14T09:39:24.529Z,16.08
2022-08-14T09:42:21.796Z,16.00
2022-08-14T09:45:25.284Z,17.58
2022-08-14T09:47:57.970Z,16.70
2022-08-14T09:50:36.633Z,17.35
2022-08-14T09:53:17.998Z,16.73
2022-08-14T09:55:46.034Z,16.50
2022-08-14T09:58:20.049Z,22.58
2022-08-14T10:00:54.942Z,18.75
2022-08-14T10:03:33.047Z,18.33
2022-08-14T10:06:11.998Z,17.52
2022-08-14T10:08:51.847Z,17.73
2022-08-14T10:11:34.928Z,17.90
2022-08-14T10:14:34.723Z,16.73
2022-08-14T10:17:05.192Z,16.13
2022-08-14T10:19:35.686Z,15.75
2022-08-14T10:23:11.877Z,16.83
2022-08-14T10:24:59.651Z,15.65
2022-08-14T10:27:27.235Z,13.75
2022-08-14T10:30:04.487Z,15.95
2022-08-14T10:32:40.385Z,17.33
2022-08-14T10:35:13.491Z,13.80
2022-08-14T10:37:50.103Z,13.55
2022-08-14T10:40:44.793Z,17.08
2022-08-14T10:43:27.135Z,16.55
2022-08-14T10:46:21.257Z,20.15
2022-08-14T10:49:05.005Z,14.77
2022-08-14T10:51:36.355Z,14.55
2022-08-14T10:54:16.939Z,15.45
2022-08-14T10:56:56.000Z,14.98
2022-08-14T10:59:31.242Z,13.60
2022-08-14T11:02:03.079Z,16.02
2022-08-14T11:04:30.716Z,14.43
2022-08-14T11:06:57.918Z,13.93
2022-08-14T11:09:26.264Z,14.27
2022-08-14T11:12:44.092Z,14.77
2022-08-14T11:14:51.513Z,14.07
2022-08-14T11:17:31.911Z,13.73
2022-08-14T11:20:01.203Z,14.20
2022-08-14T11:22:56.605Z,14.00
2022-08-14T11:25:18.406Z,12.50
2022-08-14T11:27:47.075Z,13.93
2022-08-14T11:30:51.755Z,15.60
2022-08-14T11:33:09.031Z,15.52
2022-08-14T11:35:44.025Z,15.15
2022-08-14T11:38:17.232Z,14.15
2022-08-14T11:40:47.400Z,16.75
2022-08-14T11:43:15.481Z,14.85
2022-08-14T11:45:45.898Z,15.88
2022-08-14T11:49:01.658Z,14.80
2022-08-14T11:51:18.732Z,16.85
2022-08-14T11:53:55.395Z,16.83
2022-08-14T11:56:25.705Z,16.92
2022-08-14T11:58:56.305Z,18.83
2022-08-14T12:01:28.718Z,18.05
2022-08-14T12:04:00.989Z,17.65
2022-08-14T12:06:39.401Z,16.65
2022-08-14T12:09:08.457Z,14.43
2022-08-14T12:11:43.203Z,18.40
2022-08-14T12:14:13.279Z,17.35
2022-08-14T12:17:12.221Z,16.75
2022-08-14T12:19:53.769Z,17.65
2022-08-14T12:22:36.154Z,18.17
2022-08-14T12:25:11.114Z,19.17
2022-08-14T12:27:41.305Z,17.45
2022-08-14T12:30:09.780Z,16.08
2022-08-14T12:32:43.394Z,16.20
2022-08-14T12:35:11.466Z,18.27
2022-08-14T12:37:40.143Z,18.13
2022-08-14T12:40:20.655Z,16.02
2022-08-14T12:42:53.600Z,14.57
2022-08-14T12:45:31.241Z,18.42
2022-08-14T12:48:21.066Z,17.95
2022-08-14T12:50:52.977Z,16.92
2022-08-14T12:53:21.070Z,16.88
2022-08-14T12:56:18.812Z,16.52
2022-08-14T12:58:57.377Z,14.95
2022-08-14T13:01:27.539Z,11.98
2022-08-14T13:04:14.259Z,14.25
2022-08-14T13:06:50.838Z,13.25
2022-08-14T13:09:19.314Z,14.50
2022-08-14T13:11:58.279Z,13.68
2022-08-14T13:14:29.938Z,14.10
2022-08-14T13:16:58.699Z,13.50
2022-08-14T13:19:26.731Z,14.02
2022-08-14T13:21:58.620Z,15.57
2022-08-14T13:24:33.334Z,14.40
2022-08-14T13:27:04.389Z,13.77
2022-08-14T13:29:34.439Z,13.05
2022-08-14T13:32:02.771Z,11.95
2022-08-14T13:34:31.512Z,13.98
2022-08-14T13:36:59.392Z,13.05
2022-08-14T13:39:36.221Z,15.50
2022-08-14T13:42:13.200Z,11.95
2022-08-14T13:44:42.537Z,10.68
2022-08-14T13:47:14.828Z,11.05
2022-08-14T13:49:57.899Z,8.68
2022-08-14T13:52:52.798Z,10.00
2022-08-14T13:55:13.605Z,9.93
2022-08-14T13:57:49.212Z,10.07
2022-08-14T14:00:21.783Z,9.05
2022-08-14T14:03:00.114Z,10.93
2022-08-14T14:05:52.847Z,10.88
2022-08-14T14:08:18.490Z,10.02
2022-08-14T14:10:46.029Z,10.52
2022-08-14T14:13:18.542Z,10.45
2022-08-14T14:15:57.799Z,10.43
2022-08-14T14:18:34.008Z,10.20
2022-08-14T14:21:03.092Z,11.15
2022-08-14T14:23:30.946Z,10.25
2022-08-14T14:25:59.500Z,11.27
2022-08-14T14:28:32.005Z,10.68
2022-08-14T14:31:06.124Z,10.43
2022-08-14T14:33:47.814Z,10.50
2022-08-14T14:36:30.572Z,15.40
2022-08-14T14:38:59.680Z,13.23
2022-08-14T14:41:38.299Z,12.35
2022-08-14T14:44:16.043Z,12.40
2022-08-14T14:46:44.965Z,12.95
2022-08-14T14:49:14.822Z,12.52
2022-08-14T14:51:49.793Z,11.23
2022-08-14T14:54:31.639Z,11.43
2022-08-14T14:57:00.221Z,10.85
2022-08-14T14:59:33.555Z,11.25
2022-08-14T15:02:07.967Z,13.18
2022-08-14T15:04:43.740Z,17.52
2022-08-14T15:07:12.622Z,18.10
2022-08-14T15:09:40.018Z,17.90
2022-08-14T15:12:34.523Z,15.18
2022-08-14T15:14:58.027Z,13.05
2022-08-14T15:17:28.412Z,12.88
2022-08-14T15:20:06.846Z,13.25
2022-08-14T15:22:35.580Z,13.55
2022-08-14T15:25:02.398Z,12.35
2022-08-14T15:27:29.686Z,18.17
2022-08-14T15:29:56.422Z,18.48
2022-08-14T15:32:23.503Z,16.95
2022-08-14T15:34:52.646Z,15.48
2022-08-14T15:37:22.708Z,15.15
2022-08-14T15:39:52.633Z,15.90
2022-08-14T15:42:23.068Z,12.20
2022-08-14T15:44:57.039Z,13.68
2022-08-14T15:47:28.199Z,12.15
2022-08-14T15:49:59.096Z,11.40
2022-08-14T15:52:32.437Z,12.27
2022-08-14T15:55:08.474Z,12.27
2022-08-14T15:57:36.635Z,11.82
2022-08-14T16:00:43.907Z,10.80
2022-08-14T16:03:15.820Z,13.85
2022-08-14T16:05:45.986Z,10.15
2022-08-14T16:08:29.246Z,12.15
2022-08-14T16:10:59.018Z,9.98
2022-08-14T16:13:41.279Z,10.80
2022-08-14T16:16:47.187Z,12.45
2022-08-14T16:19:10.863Z,10.20
2022-08-14T16:22:02.060Z,9.35
2022-08-14T16:24:33.433Z,9.32
2022-08-14T16:27:01.475Z,10.25
2022-08-14T16:29:34.525Z,11.23
2022-08-14T16:32:31.941Z,12.15
2022-08-14T16:34:51.126Z,8.70
2022-08-14T16:37:23.004Z,10.88
2022-08-14T16:39:58.450Z,10.27
2022-08-14T16:43:02.157Z,9.77
2022-08-14T16:45:17.566Z,7.72
2022-08-14T16:47:44.668Z,9.57
2022-08-14T16:50:15.284Z,8.30
2022-08-14T16:55:30.188Z,9.63
2022-08-14T17:00:45.136Z,7.85
2022-08-14T17:03:13.338Z,9.23
2022-08-14T17:05:43.949Z,9.30
2022-08-14T17:08:33.296Z,9.02
2022-08-14T17:11:11.116Z,10.15
2022-08-14T17:13:59.021Z,9.32
2022-08-14T17:16:30.212Z,10.52
2022-08-14T17:19:01.673Z,9.23
2022-08-14T17:21:40.961Z,8.80
2022-08-14T17:24:55.947Z,8.95
2022-08-14T17:26:59.842Z,10.95
2022-08-14T17:29:31.323Z,11.82
2022-08-14T17:32:21.930Z,12.73
2022-08-14T17:34:55.380Z,13.02
2022-08-14T17:37:34.289Z,12.00
2022-08-14T17:40:22.876Z,11.05
2022-08-14T17:43:00.871Z,11.18
2022-08-14T17:45:41.599Z,11.57
2022-08-14T17:49:14.829Z,11.95
2022-08-14T17:51:23.660Z,9.18
2022-08-14T17:54:01.515Z,11.45
2022-08-14T17:56:33.953Z,11.50
2022-08-14T17:59:05.214Z,9.63
2022-08-14T18:01:37.347Z,9.73
2022-08-14T18:04:25.035Z,10.88
2022-08-14T18:07:06.201Z,7.68
2022-08-14T18:09:57.121Z,10.77
2022-08-14T18:12:37.148Z,9.98
2022-08-14T18:15:16.861Z,11.85
2022-08-14T18:17:52.730Z,11.13
2022-08-14T18:21:24.391Z,10.45
2022-08-14T18:23:13.713Z,13.82
2022-08-14T18:25:51.623Z,11.13
2022-08-14T18:28:51.073Z,10.27
2022-08-14T18:31:21.373Z,9.73
2022-08-14T18:33:54.431Z,10.65
2022-08-14T18:36:47.603Z,11.63
2022-08-14T18:39:34.719Z,10.32
2022-08-14T18:42:23.163Z,9.63
2022-08-14T18:44:50.904Z,11.38
2022-08-14T18:47:21.206Z,16.08
2022-08-14T18:49:54.227Z,9.93
2022-08-14T18:52:22.737Z,9.82
2022-08-14T18:54:59.481Z,10.38
2022-08-14T18:57:27.182Z,9.63
2022-08-14T19:00:32.427Z,9.95
2022-08-14T19:03:00.920Z,11.00
2022-08-14T19:05:47.531Z,10.10
2022-08-14T19:08:17.927Z,9.88
2022-08-14T19:10:45.595Z,11.05
2022-08-14T19:13:48.787Z,10.82
2022-08-14T19:16:26.350Z,8.85
2022-08-14T19:19:00.616Z,14.23
2022-08-14T19:21:30.336Z,8.45
2022-08-14T19:24:27.726Z,9.35
2022-08-14T19:27:23.911Z,10.73
2022-08-14T19:30:20.289Z,8.75
2022-08-14T19:32:51.113Z,8.98
2022-08-14T19:35:22.912Z,9.45
2022-08-14T19:37:53.872Z,9.40
2022-08-14T19:40:39.305Z,9.27
2022-08-14T19:43:09.291Z,9.70
2022-08-14T19:45:38.233Z,8.98
2022-08-14T19:48:12.615Z,9.43
2022-08-14T19:50:41.088Z,9.10
2022-08-14T19:53:16.946Z,10.40
2022-08-14T19:55:59.411Z,10.60
2022-08-14T19:58:54.942Z,11.20
2022-08-14T20:01:36.926Z,11.73
2022-08-14T20:04:47.446Z,12.88
2022-08-14T20:07:27.479Z,13.52
2022-08-14T20:11:03.834Z,13.38
2022-08-14T20:13:32.157Z,14.57
2022-08-14T20:16:12.320Z,14.55
2022-08-14T20:18:49.062Z,15.57
2022-08-14T20:21:18.471Z,17.90
2022-08-14T20:23:48.194Z,18.67
2022-08-14T20:26:31.943Z,17.75
2022-08-14T20:29:05.146Z,17.30
2022-08-14T20:31:36.971Z,19.40
2022-08-14T20:34:18.612Z,18.20
2022-08-14T20:37:00.834Z,17.15
2022-08-14T20:39:34.438Z,16.52
2022-08-14T20:42:30.246Z,16.25
2022-08-14T20:45:21.591Z,16.67
2022-08-14T20:47:57.737Z,21.50
2022-08-14T20:50:28.939Z,21.50
2022-08-14T20:53:00.264Z,20.23
2022-08-14T20:55:30.489Z,17.90
2022-08-14T20:58:02.511Z,16.73
2022-08-14T21:00:52.250Z,19.38
2022-08-14T21:03:57.280Z,17.83
2022-08-14T21:07:23.336Z,18.48
2022-08-14T21:10:05.284Z,18.95
2022-08-14T21:12:34.798Z,19.75
2022-08-14T21:17:26.539Z,20.20
2022-08-14T21:19:53.519Z,21.17
2022-08-14T21:22:20.220Z,20.85
2022-08-14T21:24:47.833Z,20.20
2022-08-14T21:27:19.978Z,19.25
2022-08-14T21:29:55.592Z,21.08
2022-08-14T21:32:35.239Z,20.33
2022-08-14T21:35:06.215Z,19.33
2022-08-14T21:37:43.968Z,19.85
2022-08-14T21:40:40.169Z,20.90
2022-08-14T21:43:01.075Z,19.23
2022-08-14T21:45:27.828Z,16.98
2022-08-14T21:47:56.448Z,20.50
2022-08-14T21:50:39.828Z,18.20
2022-08-14T21:53:11.442Z,17.25
2022-08-14T21:55:42.548Z,20.50
2022-08-14T21:58:51.679Z,19.35
2022-08-14T22:00:57.429Z,19.58
2022-08-14T22:03:24.497Z,21.63
2022-08-14T22:05:56.010Z,22.33
2022-08-14T22:08:26.839Z,20.60
2022-08-14T22:10:54.982Z,24.10
2022-08-14T22:13:25.064Z,22.55
2022-08-14T22:15:58.147Z,23.08
2022-08-14T22:18:26.527Z,22.33
2022-08-14T22:20:56.847Z,22.80
2022-08-14T22:23:25.799Z,21.52
2022-08-14T22:25:53.884Z,22.08
2022-08-14T22:28:32.967Z,20.33
2022-08-14T22:31:00.321Z,21.65
2022-08-14T22:33:31.074Z,18.52
2022-08-14T22:35:59.230Z,19.27
2022-08-14T22:38:36.384Z,16.88
2022-08-14T22:41:25.428Z,16.92
2022-08-14T22:43:54.881Z,17.58
2022-08-14T22:46:21.809Z,15.90
2022-08-14T22:48:49.431Z,18.75
2022-08-14T22:51:18.088Z,20.95
2022-08-14T22:53:46.264Z,20.30
2022-08-14T22:56:20.190Z,22.95
2022-08-14T22:58:49.916Z,22.05
2022-08-14T23:01:55.792Z,22.48
2022-08-14T23:04:35.371Z,23.77
2022-08-14T23:07:21.721Z,21.35
2022-08-14T23:09:56.655Z,19.60
2022-08-14T23:12:28.861Z,21.48
2022-08-14T23:14:57.135Z,19.40
2022-08-14T23:17:24.043Z,17.17
2022-08-14T23:19:56.103Z,18.50
2022-08-14T23:22:24.430Z,17.52
2022-08-14T23:24:57.788Z,17.40
2022-08-14T23:27:31.983Z,15.93
2022-08-14T23:30:34.090Z,16.38
2022-08-14T23:33:02.441Z,18.15
2022-08-14T23:35:33.238Z,15.80
2022-08-14T23:38:05.642Z,15.45
2022-08-14T23:40:34.506Z,17.42
2022-08-14T23:43:04.701Z,15.55
2022-08-14T23:45:37.015Z,15.65
2022-08-14T23:48:05.497Z,15.07
2022-08-14T23:50:38.970Z,15.77
2022-08-14T23:53:28.268Z,21.98
2022-08-14T23:56:31.949Z,22.92
2022-08-14T23:59:01.157Z,22.67
